Time;durP1;ratioP1;P1;durP2;ratioP2;P2;SDS_P1;SDS_P2;PMS_P1;PMS_P2;Temp;Humidity;BMP_temperature;BMP_pressure;BME280_temperature;BME280_humidity;BME280_pressure;Samples;Min_cycle;Max_cycle;Signal;HPM_P1;HPM_P2
2022/06/02 00:00:31;;;;;;;;;;;;;;;10.04;48.42;97592.66;6246035;28;19928;-68
2022/06/02 00:03:41;;;;;;;;;;;;;;;10.06;48.29;97597.84;6246294;28;19921;-68
2022/06/02 00:06:52;;;;;;;;;;;;;;;10.07;49.11;97596.91;6246406;28;20055;-68
2022/06/02 00:10:06;;;;;;;;;;;;;;;10.09;48.53;97595.06;6246372;28;20293;-67
2022/06/02 00:13:19;;;;;;;;;;;;;;;10.08;49.18;97593.38;6246218;28;19928;-68
2022/06/02 00:16:26;;;;;;;;;;;;;;;10.11;50.42;97603.75;6245828;28;20020;-68
2022/06/02 00:19:30;;;;;;;;;;;;;;;10.13;48.88;97607.13;6245485;28;20442;-68
2022/06/02 00:22:42;;;;;;;;;;;;;;;10.18;48.19;97620.88;6245414;28;19921;-67
2022/06/02 00:25:53;;;;;;;;;;;;;;;10.21;48.35;97610.22;6245938;28;19927;-68
2022/06/02 00:29:08;;;;;;;;;;;;;;;10.24;48.66;97607.41;6245760;28;19920;-68
2022/06/02 00:32:19;;;;;;;;;;;;;;;10.27;48.80;97609.91;6246137;28;20384;-67
2022/06/02 00:35:22;;;;;;;;;;;;;;;10.28;49.24;97614.28;6245020;28;19921;-67
2022/06/02 00:38:28;;;;;;;;;;;;;;;10.30;49.19;97615.06;6245829;28;19950;-68
2022/06/02 00:41:43;;;;;;;;;;;;;;;10.32;49.16;97620.22;6245504;28;19921;-68
2022/06/02 00:45:00;;;;;;;;;;;;;;;10.36;48.93;97619.16;6245862;28;19921;-68
2022/06/02 00:48:01;;;;;;;;;;;;;;;10.42;48.58;97628.50;6245388;28;19928;-68
2022/06/02 00:51:06;;;;;;;;;;;;;;;10.44;49.05;97623.97;6245741;28;19920;-68
2022/06/02 00:57:51;;;;;;;;;;;;;;;10.60;48.33;97627.50;6245427;28;19921;-67
2022/06/02 01:01:03;;;;;;;;;;;;;;;10.66;48.31;97626.34;6245380;28;19921;-68
2022/06/02 01:04:10;;;;;;;;;;;;;;;10.73;48.14;97627.72;6245493;28;19921;-68
2022/06/02 01:07:26;;;;;;;;;;;;;;;10.78;49.42;97625.69;6245543;28;19921;-68
2022/06/02 01:10:46;;;;;;;;;;;;;;;10.87;48.65;97634.84;6245636;28;19928;-68
2022/06/02 01:13:48;;;;;;;;;;;;;;;10.96;48.53;97640.50;6245228;28;19943;-68
2022/06/02 01:16:58;;;;;;;;;;;;;;;11.02;48.70;97634.03;6245304;28;19948;-68
2022/06/02 01:20:13;;;;;;;;;;;;;;;11.08;48.22;97633.72;6245205;28;19921;-68
2022/06/02 01:23:33;;;;;;;;;;;;;;;11.18;48.18;97634.91;6245152;28;20406;-68
2022/06/02 01:26:47;;;;;;;;;;;;;;;11.26;47.92;97633.63;6245134;28;19935;-67
2022/06/02 01:29:51;;;;;;;;;;;;;;;11.37;48.57;97644.41;6244920;28;19936;-68
2022/06/02 01:33:01;;;;;;;;;;;;;;;11.45;48.74;97647.47;6245338;28;19921;-68
2022/06/02 01:36:12;;;;;;;;;;;;;;;11.55;48.06;97643.41;6249401;28;20020;-68
2022/06/02 01:39:35;;;;;;;;;;;;;;;11.67;48.07;97642.69;6248264;28;19921;-68
2022/06/02 01:42:54;;;;;;;;;;;;;;;11.79;48.16;97640.28;6249374;28;19921;-68
2022/06/02 01:46:15;;;;;;;;;;;;;;;11.90;48.23;97635.28;6249216;28;20075;-68
2022/06/02 01:49:32;;;;;;;;;;;;;;;12.01;47.64;97645.22;6249063;28;20280;-68
2022/06/02 01:52:39;;;;;;;;;;;;;;;12.12;47.76;97643.66;6249111;28;19921;-67
2022/06/02 01:55:59;;;;;;;;;;;;;;;12.27;47.53;97641.88;6248805;28;19921;-68
2022/06/02 01:59:27;;;;;;;;;;;;;;;12.42;47.22;97642.75;6249144;28;20388;-68
2022/06/02 02:02:37;;;;;;;;;;;;;;;12.58;46.81;97645.31;6247586;28;19929;-68
2022/06/02 02:05:49;;;;;;;;;;;;;;;12.73;46.45;97649.66;6248792;28;20335;-68
2022/06/02 02:09:05;;;;;;;;;;;;;;;12.88;46.93;97649.66;6248742;28;20307;-68
2022/06/02 02:12:19;;;;;;;;;;;;;;;13.02;46.69;97654.94;6248612;28;19983;-69
2022/06/02 02:15:20;;;;;;;;;;;;;;;13.15;46.82;97644.47;6248347;28;19920;-68
2022/06/02 02:18:36;;;;;;;;;;;;;;;13.30;46.52;97647.94;6247642;28;19920;-68
2022/06/02 02:21:49;;;;;;;;;;;;;;;13.47;46.46;97645.94;6248381;28;19921;-68
2022/06/02 02:24:50;;;;;;;;;;;;;;;13.65;46.28;97653.63;6248302;28;19925;-68
2022/06/02 02:28:02;;;;;;;;;;;;;;;13.81;46.33;97654.31;6248176;28;20367;-68
2022/06/02 02:31:06;;;;;;;;;;;;;;;13.97;46.19;97642.75;6248056;28;19927;-67
2022/06/02 02:34:18;;;;;;;;;;;;;;;14.14;46.47;97653.03;6248059;28;19925;-67
2022/06/02 02:37:27;;;;;;;;;;;;;;;14.29;46.51;97654.66;6247946;28;19921;-68
2022/06/02 02:40:28;;;;;;;;;;;;;;;14.46;46.36;97653.50;6248011;28;19960;-69
2022/06/02 02:43:36;;;;;;;;;;;;;;;14.62;46.22;97656.00;6247972;28;19920;-68
2022/06/02 02:46:57;;;;;;;;;;;;;;;14.82;46.31;97655.47;6247512;28;20296;-67
2022/06/02 02:50:00;;;;;;;;;;;;;;;15.02;45.63;97658.53;6247833;28;19991;-68
2022/06/02 02:53:21;;;;;;;;;;;;;;;15.22;45.36;97660.59;6247098;28;19921;-68
2022/06/02 02:56:29;;;;;;;;;;;;;;;15.48;44.20;97649.94;6245625;28;20221;-67
2022/06/02 02:59:32;;;;;;;;;;;;;;;15.80;43.12;97660.06;6247416;28;20023;-67
2022/06/02 03:02:39;;;;;;;;;;;;;;;16.05;42.00;97654.63;6247250;28;20297;-66
2022/06/02 03:05:59;;;;;;;;;;;;;;;16.24;41.49;97658.53;6247396;28;19920;-68
2022/06/02 03:09:08;;;;;;;;;;;;;;;16.38;41.22;97666.31;6247148;28;19921;-68
2022/06/02 03:12:34;;;;;;;;;;;;;;;16.52;40.85;97666.13;6246061;28;19994;-67
2022/06/02 03:15:44;;;;;;;;;;;;;;;16.60;40.81;97666.38;6246615;28;20067;-68
2022/06/02 03:19:11;;;;;;;;;;;;;;;16.65;40.64;97666.03;6247153;28;19921;-68
2022/06/02 03:22:20;;;;;;;;;;;;;;;16.76;40.76;97671.41;6246795;28;19920;-67
2022/06/02 03:25:29;;;;;;;;;;;;;;;16.89;40.42;97670.44;6246622;28;19921;-67
2022/06/02 03:28:37;;;;;;;;;;;;;;;16.98;40.63;97665.25;6246969;28;19928;-68
2022/06/02 03:31:46;;;;;;;;;;;;;;;17.15;40.48;97665.72;6246852;28;19921;-67
2022/06/02 03:35:08;;;;;;;;;;;;;;;17.24;40.48;97670.34;6246309;28;19928;-67
2022/06/02 03:38:24;;;;;;;;;;;;;;;17.33;40.21;97664.28;6246499;28;20308;-68
2022/06/02 03:41:33;;;;;;;;;;;;;;;17.46;39.87;97664.97;6246220;28;20312;-68
2022/06/02 03:44:44;;;;;;;;;;;;;;;17.60;39.54;97660.38;6245318;28;19921;-68
2022/06/02 03:47:54;;;;;;;;;;;;;;;17.72;39.08;97664.72;6246347;28;20392;-68
2022/06/02 03:51:14;;;;;;;;;;;;;;;17.91;38.83;97664.91;6246500;28;20425;-67
2022/06/02 03:54:24;;;;;;;;;;;;;;;17.98;38.62;97661.78;6246335;28;19928;-67
2022/06/02 03:57:43;;;;;;;;;;;;;;;18.17;37.66;97659.25;6245190;28;19921;-69
2022/06/02 04:00:52;;;;;;;;;;;;;;;18.35;37.20;97663.06;6245436;28;19974;-68
2022/06/02 04:04:14;;;;;;;;;;;;;;;18.47;37.06;97655.00;6245686;28;20392;-68
2022/06/02 04:07:34;;;;;;;;;;;;;;;18.60;36.79;97655.66;6245655;28;19925;-68
2022/06/02 04:10:36;;;;;;;;;;;;;;;18.71;36.63;97657.38;6245969;28;20307;-68
2022/06/02 04:13:43;;;;;;;;;;;;;;;18.90;35.88;97656.69;6246028;28;19921;-68
2022/06/02 04:16:44;;;;;;;;;;;;;;;19.04;34.94;97648.34;6245823;28;19936;-68
2022/06/02 04:23:28;;;;;;;;;;;;;;;19.22;34.37;97646.75;6245739;28;19975;-68
2022/06/02 04:26:42;;;;;;;;;;;;;;;19.32;34.22;97653.94;6245980;28;20032;-68
2022/06/02 04:29:52;;;;;;;;;;;;;;;19.38;34.16;97645.38;6245774;28;19928;-69
2022/06/02 04:32:53;;;;;;;;;;;;;;;19.55;34.00;97641.22;6245864;28;20414;-68
2022/06/02 04:35:57;;;;;;;;;;;;;;;19.71;33.86;97642.41;6245734;28;19921;-68
2022/06/02 04:38:58;;;;;;;;;;;;;;;20.15;32.87;97637.50;6245543;28;19921;-68
2022/06/02 04:42:08;;;;;;;;;;;;;;;21.75;29.70;97643.84;6245728;28;19921;-68
2022/06/02 04:45:23;;;;;;;;;;;;;;;24.73;25.99;97648.63;6245672;28;20027;-67
2022/06/02 04:48:24;;;;;;;;;;;;;;;27.81;23.14;97654.16;6245598;28;19921;-67
2022/06/02 04:51:30;;;;;;;;;;;;;;;30.17;20.06;97661.81;6260410;28;19921;-67
2022/06/02 04:54:53;;;;;;;;;;;;;;;32.33;18.69;97663.81;6245550;28;19937;-67
2022/06/02 04:57:56;;;;;;;;;;;;;;;35.29;17.06;97678.06;6245576;28;19920;-68
2022/06/02 05:01:15;;;;;;;;;;;;;;;38.28;15.29;97670.13;6245214;28;20393;-67
2022/06/02 05:04:25;;;;;;;;;;;;;;;41.41;14.97;97676.06;6245762;28;19928;-67
2022/06/02 05:07:37;;;;;;;;;;;;;;;43.84;13.76;97675.88;6246338;28;19921;-67
2022/06/02 05:10:38;;;;;;;;;;;;;;;45.58;12.10;97673.28;6249747;28;19928;-68
2022/06/02 05:13:43;;;;;;;;;;;;;;;47.00;10.00;97673.25;6250201;28;20304;-68
2022/06/02 05:17:05;;;;;;;;;;;;;;;47.91;9.97;97677.53;6249625;28;19920;-67
2022/06/02 05:20:06;;;;;;;;;;;;;;;48.90;8.36;97677.84;6249289;28;19972;-67
2022/06/02 05:23:20;;;;;;;;;;;;;;;49.19;6.72;97679.13;6249430;28;19921;-67
2022/06/02 05:26:45;;;;;;;;;;;;;;;48.34;6.01;97677.63;6249644;28;20323;-67
2022/06/02 05:30:08;;;;;;;;;;;;;;;46.72;7.33;97667.81;6249639;28;19921;-67
2022/06/02 05:33:14;;;;;;;;;;;;;;;46.84;6.56;97658.88;6249703;28;20303;-67
2022/06/02 05:36:37;;;;;;;;;;;;;;;47.03;6.47;97667.03;6249475;28;19921;-68
2022/06/02 05:39:48;;;;;;;;;;;;;;;46.61;6.31;97666.38;6249215;28;19924;-67
2022/06/02 05:43:10;;;;;;;;;;;;;;;46.80;6.61;97663.44;6249276;28;19920;-67
2022/06/02 05:46:14;;;;;;;;;;;;;;;46.78;6.20;97652.63;6249049;28;19925;-66
2022/06/02 05:49:35;;;;;;;;;;;;;;;46.82;6.15;97649.19;6249151;28;19924;-67
2022/06/02 05:52:42;;;;;;;;;;;;;;;46.78;6.56;97649.81;6247850;28;19920;-69
2022/06/02 05:55:46;;;;;;;;;;;;;;;48.27;6.41;97654.13;6248862;28;19928;-68
2022/06/02 05:58:50;;;;;;;;;;;;;;;48.99;5.46;97656.31;6248846;28;19920;-68
2022/06/02 06:01:56;;;;;;;;;;;;;;;48.98;5.27;97654.69;6248507;28;19971;-68
2022/06/02 06:05:05;;;;;;;;;;;;;;;48.30;5.80;97656.31;6248789;28;19979;-68
2022/06/02 06:08:11;;;;;;;;;;;;;;;48.56;5.54;97640.41;6248755;28;19921;-67
2022/06/02 06:11:35;;;;;;;;;;;;;;;49.86;5.36;97639.25;6248596;28;20398;-67
2022/06/02 06:14:44;;;;;;;;;;;;;;;50.21;4.53;97644.63;6248686;28;19921;-68
2022/06/02 06:17:56;;;;;;;;;;;;;;;49.92;4.88;97644.66;6248485;28;19969;-67
2022/06/02 06:21:17;;;;;;;;;;;;;;;49.66;5.17;97638.03;6247858;28;20051;-66
2022/06/02 06:24:28;;;;;;;;;;;;;;;49.73;4.90;97640.31;6248316;28;19924;-67
2022/06/02 06:27:57;;;;;;;;;;;;;;;49.82;5.27;97627.06;6248280;28;19921;-67
2022/06/02 06:31:01;;;;;;;;;;;;;;;51.19;4.61;97631.09;6246632;28;19956;-67
2022/06/02 06:34:08;;;;;;;;;;;;;;;52.10;4.75;97643.34;6248112;28;20774;-67
2022/06/02 06:37:22;;;;;;;;;;;;;;;53.08;3.86;97634.59;6247957;28;19920;-67
2022/06/02 06:40:27;;;;;;;;;;;;;;;52.94;3.41;97629.38;6247706;28;20336;-68
2022/06/02 06:43:38;;;;;;;;;;;;;;;52.92;4.10;97623.31;6247959;28;20400;-67
2022/06/02 06:46:46;;;;;;;;;;;;;;;53.05;3.54;97629.72;6247860;28;19991;-67
2022/06/02 06:49:58;;;;;;;;;;;;;;;51.91;3.75;97616.69;6247682;28;19921;-67
2022/06/02 06:53:02;;;;;;;;;;;;;;;51.57;4.14;97635.59;6247801;28;20392;-67
2022/06/02 06:56:13;;;;;;;;;;;;;;;51.39;4.27;97625.78;6247567;28;19921;-67
2022/06/02 06:59:29;;;;;;;;;;;;;;;50.38;4.95;97614.91;6247579;28;19940;-67
2022/06/02 07:02:43;;;;;;;;;;;;;;;50.54;4.77;97610.31;6247552;28;19927;-67
2022/06/02 07:05:48;;;;;;;;;;;;;;;51.93;4.22;97614.34;6262206;28;19921;-67
2022/06/02 07:08:55;;;;;;;;;;;;;;;51.94;4.49;97610.34;6247450;28;19928;-67
2022/06/02 07:15:44;;;;;;;;;;;;;;;54.65;4.02;97598.97;6246910;28;19925;-67
2022/06/02 07:18:52;;;;;;;;;;;;;;;55.58;3.66;97603.50;6246809;28;20392;-67
2022/06/02 07:22:15;;;;;;;;;;;;;;;54.48;3.54;97594.59;6229324;28;19921;-66
2022/06/02 07:25:21;;;;;;;;;;;;;;;53.23;3.57;97600.06;6246642;28;19944;-66
2022/06/02 07:28:37;;;;;;;;;;;;;;;52.76;3.58;97594.38;6246725;28;19921;-67
2022/06/02 07:31:48;;;;;;;;;;;;;;;53.39;3.48;97589.66;6245869;28;20255;-67
2022/06/02 07:35:13;;;;;;;;;;;;;;;53.46;3.65;97588.22;6246363;28;19921;-67
2022/06/02 07:38:22;;;;;;;;;;;;;;;52.91;3.81;97585.13;6246653;28;19921;-67
2022/06/02 07:41:40;;;;;;;;;;;;;;;51.23;4.38;97579.94;6246383;28;20384;-67
2022/06/02 07:44:52;;;;;;;;;;;;;;;50.20;4.44;97567.44;6246324;28;19925;-68
2022/06/02 07:47:54;;;;;;;;;;;;;;;50.60;4.59;97569.72;6245962;28;19920;-67
2022/06/02 07:51:01;;;;;;;;;;;;;;;50.94;4.41;97568.53;6246114;28;19925;-68
2022/06/02 07:54:15;;;;;;;;;;;;;;;51.07;4.22;97566.59;6245018;28;19921;-67
2022/06/02 07:57:35;;;;;;;;;;;;;;;50.58;4.54;97554.41;6244852;28;20033;-67
2022/06/02 08:01:01;;;;;;;;;;;;;;;50.88;4.34;97557.91;6246081;28;20382;-66
2022/06/02 08:04:18;;;;;;;;;;;;;;;51.47;4.14;97554.75;6244549;28;19917;-66
2022/06/02 08:07:29;;;;;;;;;;;;;;;52.66;4.09;97559.13;6245913;28;19921;-66
2022/06/02 08:10:50;;;;;;;;;;;;;;;53.15;3.49;97544.84;6246075;28;20417;-67
2022/06/02 08:13:51;;;;;;;;;;;;;;;53.00;3.21;97539.97;6245710;28;19920;-67
2022/06/02 08:17:00;;;;;;;;;;;;;;;52.82;4.00;97548.75;6245195;28;19921;-66
2022/06/02 08:20:01;;;;;;;;;;;;;;;51.80;4.25;97542.56;6245529;28;20019;-67
2022/06/02 08:23:08;;;;;;;;;;;;;;;50.88;4.57;97541.09;6245287;28;19944;-66
2022/06/02 08:26:11;;;;;;;;;;;;;;;50.37;4.63;97537.63;6246023;28;20430;-66
2022/06/02 08:29:22;;;;;;;;;;;;;;;50.95;4.71;97530.13;6245936;28;20077;-66
2022/06/02 08:32:38;;;;;;;;;;;;;;;51.85;4.26;97534.72;6245681;28;19920;-66
2022/06/02 08:35:54;;;;;;;;;;;;;;;52.63;4.27;97528.94;6245782;28;19920;-67
2022/06/02 08:38:56;;;;;;;;;;;;;;;52.41;3.84;97527.56;6245422;28;19987;-67
2022/06/02 08:42:16;;;;;;;;;;;;;;;50.13;4.45;97521.53;6245529;28;19921;-67
2022/06/02 08:45:21;;;;;;;;;;;;;;;48.34;4.97;97520.50;6250815;28;19921;-66
2022/06/02 08:48:34;;;;;;;;;;;;;;;47.76;5.29;97499.44;6249181;28;19920;-67
2022/06/02 08:51:56;;;;;;;;;;;;;;;48.11;5.56;97501.13;6250080;28;19925;-66
2022/06/02 08:55:19;;;;;;;;;;;;;;;48.51;5.22;97483.38;6250132;28;19921;-67
2022/06/02 08:58:23;;;;;;;;;;;;;;;49.47;5.22;97486.63;6248919;28;19925;-67
2022/06/02 09:01:27;;;;;;;;;;;;;;;49.17;4.94;97474.59;6250426;28;19921;-67
2022/06/02 09:04:28;;;;;;;;;;;;;;;49.26;5.04;97482.97;6249946;28;19928;-67
2022/06/02 09:07:54;;;;;;;;;;;;;;;48.59;5.82;97476.16;6250665;28;19921;-66
2022/06/02 09:10:58;;;;;;;;;;;;;;;49.17;5.23;97474.59;6249962;28;19927;-67
2022/06/02 09:14:11;;;;;;;;;;;;;;;49.44;5.21;97471.34;6249702;28;19987;-67
2022/06/02 09:17:20;;;;;;;;;;;;;;;48.68;5.74;97463.78;6249578;28;20311;-67
2022/06/02 09:20:23;;;;;;;;;;;;;;;49.08;5.25;97459.84;6250081;28;19921;-66
2022/06/02 09:23:46;;;;;;;;;;;;;;;49.07;5.38;97463.81;6249758;28;19943;-67
2022/06/02 09:27:00;;;;;;;;;;;;;;;48.41;5.72;97448.22;6249752;28;19971;-67
2022/06/02 09:30:12;;;;;;;;;;;;;;;46.93;6.34;97450.03;6249625;28;20376;-68
2022/06/02 09:36:45;;;;;;;;;;;;;;;46.47;6.59;97429.03;6249569;28;20392;-67
2022/06/02 09:40:04;;;;;;;;;;;;;;;46.14;6.70;97434.84;6249379;28;20499;-67
2022/06/02 09:43:08;;;;;;;;;;;;;;;45.39;6.84;97439.91;6249257;28;19928;-67
2022/06/02 09:46:16;;;;;;;;;;;;;;;44.69;7.16;97435.47;6249279;28;19921;-68
2022/06/02 09:49:28;;;;;;;;;;;;;;;44.37;7.42;97434.41;6248795;28;19921;-67
2022/06/02 09:52:39;;;;;;;;;;;;;;;44.14;7.73;97430.66;6248732;28;19921;-67
2022/06/02 09:55:55;;;;;;;;;;;;;;;44.10;7.56;97429.59;6247695;28;19920;-67
2022/06/02 09:59:17;;;;;;;;;;;;;;;43.44;7.85;97423.09;6248596;28;19921;-66
2022/06/02 10:02:27;;;;;;;;;;;;;;;42.29;8.10;97406.41;6248600;28;19921;-66
2022/06/02 10:05:32;;;;;;;;;;;;;;;43.03;8.18;97412.56;6248622;28;19927;-68
2022/06/02 10:08:38;;;;;;;;;;;;;;;43.63;7.64;97405.69;6248496;28;20372;-66
2022/06/02 10:11:51;;;;;;;;;;;;;;;42.85;8.27;97420.81;6248344;28;19921;-67
2022/06/02 10:15:00;;;;;;;;;;;;;;;41.79;9.00;97404.91;6248597;28;19920;-67
2022/06/02 10:18:01;;;;;;;;;;;;;;;41.16;9.03;97403.59;6247095;28;19921;-67
2022/06/02 10:21:11;;;;;;;;;;;;;;;40.85;9.17;97386.34;6248140;28;20043;-67
2022/06/02 10:24:20;;;;;;;;;;;;;;;41.30;8.62;97398.28;6248410;28;19928;-66
2022/06/02 10:27:51;;;;;;;;;;;;;;;40.74;8.98;97401.28;6248351;28;19921;-67
2022/06/02 10:31:13;;;;;;;;;;;;;;;39.68;9.41;97396.38;6247168;28;19921;-68
2022/06/02 10:34:37;;;;;;;;;;;;;;;38.89;9.83;97388.47;6248108;28;19925;-67
2022/06/02 10:37:48;;;;;;;;;;;;;;;38.18;10.54;97381.44;6247881;28;19923;-66
2022/06/02 10:41:04;;;;;;;;;;;;;;;38.15;10.44;97390.22;6248208;28;20412;-67
2022/06/02 10:44:06;;;;;;;;;;;;;;;38.17;10.25;97379.78;6247908;28;20401;-67
2022/06/02 10:47:15;;;;;;;;;;;;;;;38.50;10.33;97391.56;6247808;28;19920;-67
2022/06/02 10:50:19;;;;;;;;;;;;;;;38.54;10.25;97381.69;6247458;28;20396;-67
2022/06/02 10:53:33;;;;;;;;;;;;;;;38.17;10.90;97379.78;6247394;28;20120;-68
2022/06/02 10:56:50;;;;;;;;;;;;;;;37.44;11.38;97387.66;6245873;28;20011;-67
2022/06/02 11:00:03;;;;;;;;;;;;;;;37.12;11.52;97371.97;6247174;28;19928;-67
2022/06/02 11:03:21;;;;;;;;;;;;;;;37.02;11.57;97383.63;6247231;28;19921;-69
2022/06/02 11:06:43;;;;;;;;;;;;;;;37.05;11.20;97371.31;6247115;28;20392;-67
2022/06/02 11:09:50;;;;;;;;;;;;;;;36.75;11.28;97377.25;6246711;28;19928;-68
2022/06/02 11:13:10;;;;;;;;;;;;;;;35.78;11.84;97367.56;6246861;28;19947;-68
2022/06/02 11:16:26;;;;;;;;;;;;;;;35.47;12.63;97359.66;6246967;28;20368;-68
2022/06/02 11:19:46;;;;;;;;;;;;;;;35.19;13.16;97366.00;6246918;28;19920;-68
2022/06/02 11:22:50;;;;;;;;;;;;;;;34.51;13.46;97363.97;6246676;28;19975;-67
2022/06/02 11:26:09;;;;;;;;;;;;;;;34.29;13.34;97359.16;6247063;28;19928;-66
2022/06/02 11:29:19;;;;;;;;;;;;;;;34.91;13.13;97353.13;6247051;28;19921;-67
2022/06/02 11:32:27;;;;;;;;;;;;;;;35.05;13.39;97353.66;6246636;28;19968;-67
2022/06/02 11:35:46;;;;;;;;;;;;;;;34.35;13.67;97357.38;6246679;28;19921;-68
2022/06/02 11:38:50;;;;;;;;;;;;;;;33.74;13.80;97354.03;6245535;28;19920;-67
2022/06/02 11:41:57;;;;;;;;;;;;;;;33.16;14.64;97346.53;6246282;28;19921;-67
2022/06/02 11:45:04;;;;;;;;;;;;;;;32.93;14.72;97353.53;6246128;28;19921;-68
2022/06/02 11:48:14;;;;;;;;;;;;;;;33.00;14.75;97346.09;6246355;28;20031;-67
2022/06/02 11:51:30;;;;;;;;;;;;;;;32.96;14.61;97346.78;6245763;28;19921;-67
2022/06/02 11:54:31;;;;;;;;;;;;;;;32.62;14.59;97339.03;6246027;28;19921;-67
2022/06/02 11:57:34;;;;;;;;;;;;;;;32.68;14.62;97336.47;6245867;28;19924;-68
2022/06/02 12:00:46;;;;;;;;;;;;;;;32.64;15.06;97334.19;6246013;28;20354;-67
2022/06/02 12:04:11;;;;;;;;;;;;;;;32.36;14.89;97328.44;6244655;28;19981;-67
2022/06/02 12:07:31;;;;;;;;;;;;;;;32.27;15.09;97335.22;6245210;28;19928;-67
2022/06/02 12:10:40;;;;;;;;;;;;;;;32.42;14.91;97327.53;6246295;28;19921;-67
2022/06/02 12:13:59;;;;;;;;;;;;;;;32.62;15.46;97333.56;6245728;28;20016;-66
2022/06/02 12:17:12;;;;;;;;;;;;;;;32.67;15.44;97319.28;6245384;28;19920;-67
2022/06/02 12:20:19;;;;;;;;;;;;;;;32.13;15.75;97321.78;6245708;28;19936;-67
2022/06/02 12:23:20;;;;;;;;;;;;;;;32.00;16.26;97321.91;6246009;28;20031;-67
2022/06/02 12:26:41;;;;;;;;;;;;;;;31.84;16.09;97319.72;6245281;28;20423;-67
2022/06/02 12:29:45;;;;;;;;;;;;;;;31.58;16.36;97312.63;6245530;28;19920;-67
2022/06/02 12:32:53;;;;;;;;;;;;;;;31.43;16.39;97310.25;6245393;28;19920;-67
2022/06/02 12:36:04;;;;;;;;;;;;;;;31.55;16.84;97303.03;6245429;28;19920;-68
2022/06/02 12:39:16;;;;;;;;;;;;;;;31.34;17.04;97312.38;6244348;28;20296;-67
2022/06/02 12:42:17;;;;;;;;;;;;;;;31.30;17.04;97301.09;6245388;28;19927;-67
2022/06/02 12:45:37;;;;;;;;;;;;;;;31.30;16.63;97300.28;6245043;28;20346;-68
2022/06/02 12:48:47;;;;;;;;;;;;;;;31.17;17.27;97300.38;6244972;28;19928;-68
2022/06/02 12:51:51;;;;;;;;;;;;;;;30.90;17.29;97294.28;6245405;28;19927;-67
2022/06/02 12:54:58;;;;;;;;;;;;;;;30.49;17.44;97300.94;6245687;28;19986;-68
2022/06/02 12:58:02;;;;;;;;;;;;;;;30.13;17.83;97289.56;6245280;28;20289;-66
2022/06/02 13:01:25;;;;;;;;;;;;;;;29.93;18.22;97297.75;6244604;28;20406;-68
2022/06/02 13:04:31;;;;;;;;;;;;;;;29.91;18.26;97296.28;6243860;28;19929;-67
2022/06/02 13:07:47;;;;;;;;;;;;;;;29.68;18.06;97299.47;6244965;28;19925;-67
2022/06/02 13:11:11;;;;;;;;;;;;;;;29.27;18.62;97295.03;6244984;28;19920;-67
2022/06/02 13:14:18;;;;;;;;;;;;;;;29.02;18.85;97287.50;6231910;28;20275;-68
2022/06/02 13:17:44;;;;;;;;;;;;;;;28.71;19.14;97289.97;6244745;28;20087;-67
2022/06/02 13:21:03;;;;;;;;;;;;;;;28.63;19.29;97289.09;6244652;28;19924;-68
2022/06/02 13:24:07;;;;;;;;;;;;;;;28.20;19.70;97293.91;6243370;28;19921;-67
2022/06/02 13:27:31;;;;;;;;;;;;;;;28.09;19.75;97298.00;6245056;28;19921;-68
2022/06/02 13:30:41;;;;;;;;;;;;;;;28.14;19.54;97287.41;6249177;28;20395;-69
2022/06/02 13:33:49;;;;;;;;;;;;;;;28.43;19.59;97282.78;6249289;28;19921;-69
2022/06/02 13:37:15;;;;;;;;;;;;;;;28.49;19.56;97297.38;6249161;28;19917;-68
2022/06/02 13:40:44;;;;;;;;;;;;;;;28.31;19.65;97295.16;6249176;28;19925;-68
2022/06/02 13:44:06;;;;;;;;;;;;;;;28.31;19.99;97295.16;6247921;28;20011;-68
2022/06/02 13:47:26;;;;;;;;;;;;;;;28.09;20.08;97287.19;6248269;28;19944;-67
2022/06/02 13:50:35;;;;;;;;;;;;;;;28.08;19.94;97296.34;6248404;28;19921;-67
2022/06/02 13:57:34;;;;;;;;;;;;;;;27.73;20.36;97293.59;6248952;28;20021;-67
2022/06/02 14:00:58;;;;;;;;;;;;;;;27.46;20.48;97286.31;6248531;28;19921;-68
2022/06/02 14:04:05;;;;;;;;;;;;;;;27.49;20.51;97286.78;6246676;28;19983;-68
2022/06/02 14:07:25;;;;;;;;;;;;;;;27.21;20.94;97278.66;6248391;28;19921;-68
2022/06/02 14:10:28;;;;;;;;;;;;;;;27.13;21.01;97291.41;6248491;28;20317;-67
2022/06/02 14:13:34;;;;;;;;;;;;;;;27.04;21.26;97288.03;6248482;28;19925;-68
2022/06/02 14:16:53;;;;;;;;;;;;;;;26.78;21.22;97284.03;6248381;28;19921;-68
2022/06/02 14:19:57;;;;;;;;;;;;;;;26.66;21.82;97280.13;6248216;28;20359;-67
2022/06/02 14:23:09;;;;;;;;;;;;;;;26.54;22.09;97276.28;6247929;28;19920;-69
2022/06/02 14:26:10;;;;;;;;;;;;;;;26.38;21.86;97293.50;6247131;28;19920;-66
2022/06/02 14:29:15;;;;;;;;;;;;;;;26.47;22.05;97286.13;6247930;28;20392;-68
2022/06/02 14:32:30;;;;;;;;;;;;;;;26.74;21.92;97285.44;6248474;28;20308;-67
2022/06/02 14:35:42;;;;;;;;;;;;;;;26.57;21.95;97281.28;6248122;28;19921;-68
2022/06/02 14:38:44;;;;;;;;;;;;;;;26.65;22.12;97289.28;6248336;28;19925;-68
2022/06/02 14:41:47;;;;;;;;;;;;;;;26.50;22.47;97286.63;6247129;28;19921;-67
2022/06/02 14:45:09;;;;;;;;;;;;;;;26.28;22.30;97276.78;6247801;28;19925;-68
2022/06/02 14:48:12;;;;;;;;;;;;;;;26.14;22.98;97286.56;6247328;28;19996;-68
2022/06/02 14:51:16;;;;;;;;;;;;;;;26.08;22.73;97284.63;6248319;28;19920;-67
2022/06/02 14:54:43;;;;;;;;;;;;;;;25.97;22.84;97285.91;6247489;28;20307;-67
2022/06/02 14:57:47;;;;;;;;;;;;;;;25.81;23.12;97291.47;6245543;28;19928;-67
2022/06/02 15:01:08;;;;;;;;;;;;;;;25.76;23.41;97292.03;6247175;28;19921;-67
2022/06/02 15:04:16;;;;;;;;;;;;;;;25.67;23.02;97306.59;6246028;28;19927;-68
2022/06/02 15:07:35;;;;;;;;;;;;;;;25.48;23.43;97295.34;6247507;28;19943;-67
2022/06/02 15:10:45;;;;;;;;;;;;;;;25.29;23.64;97295.84;6245854;28;20308;-66
2022/06/02 15:13:58;;;;;;;;;;;;;;;25.05;24.22;97302.22;6247127;28;19921;-67
2022/06/02 15:17:04;;;;;;;;;;;;;;;24.76;24.65;97308.34;6246539;28;20392;-67
2022/06/02 15:20:05;;;;;;;;;;;;;;;24.55;24.81;97301.75;6246846;28;19982;-66
2022/06/02 15:23:25;;;;;;;;;;;;;;;24.36;24.99;97297.59;6246927;28;19920;-68
2022/06/02 15:26:33;;;;;;;;;;;;;;;24.08;25.32;97305.28;6246834;28;20012;-68
2022/06/02 15:29:36;;;;;;;;;;;;;;;23.90;25.90;97308.22;6246411;28;20055;-68
2022/06/02 15:32:58;;;;;;;;;;;;;;;23.72;26.10;97305.75;6246539;28;19920;-68
2022/06/02 15:36:38;;;;;;;;;;;;;;;23.58;26.34;97314.47;6246179;28;19920;-67
2022/06/02 15:39:55;;;;;;;;;;;;;;;23.51;26.50;97314.31;6242659;28;19933;-68
2022/06/02 15:43:14;;;;;;;;;;;;;;;23.28;27.15;97308.78;6243567;28;19927;-67
2022/06/02 15:46:24;;;;;;;;;;;;;;;23.21;27.38;97307.81;6246639;28;19921;-67
2022/06/02 15:49:46;;;;;;;;;;;;;;;23.06;27.71;97304.09;6246470;28;19917;-68
2022/06/02 15:53:19;;;;;;;;;;;;;;;22.96;27.99;97306.13;6245758;28;19921;-68
2022/06/02 15:56:38;;;;;;;;;;;;;;;22.81;28.56;97308.56;6246361;28;20412;-67
2022/06/02 16:00:14;;;;;;;;;;;;;;;22.59;28.94;97312.72;6246197;28;19925;-68
2022/06/02 16:03:28;;;;;;;;;;;;;;;22.59;29.46;97310.91;6244340;28;19921;-68
2022/06/02 16:06:47;;;;;;;;;;;;;;;22.40;29.59;97309.31;6246299;28;19921;-68
2022/06/02 16:13:30;;;;;;;;;;;;;;;22.11;30.01;97314.22;6245914;28;19956;-68
2022/06/02 16:16:41;;;;;;;;;;;;;;;22.08;30.34;97312.72;6244421;28;19921;-68
2022/06/02 16:20:02;;;;;;;;;;;;;;;21.97;30.59;97323.72;6245954;28;20415;-68
2022/06/02 16:23:04;;;;;;;;;;;;;;;21.84;30.82;97317.94;6245556;28;19920;-68
2022/06/02 16:26:20;;;;;;;;;;;;;;;21.72;30.92;97314.69;6245372;28;19921;-68
2022/06/02 16:29:40;;;;;;;;;;;;;;;21.63;31.13;97331.72;6245902;28;19921;-67
2022/06/02 16:32:55;;;;;;;;;;;;;;;21.51;31.50;97329.31;6245810;28;19925;-68
2022/06/02 16:36:14;;;;;;;;;;;;;;;21.41;31.58;97338.41;6245441;28;20308;-70
2022/06/02 16:39:21;;;;;;;;;;;;;;;21.27;32.06;97327.25;6245722;28;19921;-69
2022/06/02 16:42:40;;;;;;;;;;;;;;;21.19;32.32;97334.38;6245533;28;20299;-68
2022/06/02 16:45:53;;;;;;;;;;;;;;;21.11;32.21;97336.97;6245461;28;20331;-69
2022/06/02 16:49:03;;;;;;;;;;;;;;;21.06;32.36;97332.06;6245403;28;19921;-68
2022/06/02 16:52:07;;;;;;;;;;;;;;;20.92;32.48;97332.59;6245371;28;19917;-68
2022/06/02 16:55:08;;;;;;;;;;;;;;;20.84;32.76;97338.75;6245497;28;20438;-68
2022/06/02 16:58:12;;;;;;;;;;;;;;;20.71;32.40;97336.44;6245273;28;19921;-69
2022/06/02 17:01:18;;;;;;;;;;;;;;;20.65;33.18;97336.19;6245278;28;19921;-68
2022/06/02 17:04:28;;;;;;;;;;;;;;;20.60;33.57;97334.81;6247764;28;19928;-68